Aeroporto :
LOGIN :

Iscrizione | Disclaimer

   EN    FR    IT 

 










Sommario :    VFR   VFR Marginale   IFR   IFR Intensivo   IFR Molto Intensivo
Visibilità : 
Base nubi : 
>= 8 km
>= 3000ft
5 / 8 km
1000 / 3000 ft
1500m / 5 km
500 / 1000 ft
800 / 1500m
200 / 500 ft
< 800m
< 200 ft
Simboli :   Temporali  Nebbia  Neve Forte  Precipitazioni Forti  Vento > 20 kt
SIGMETs :   Varie  Temporali  Ghiacco  Turbolenza  Onda orograficha  Ceneri Vulcaniche







- Altitudine del aeroporto : 19 ft
- Codice IATA : LCY
- Carte del aeroporto


EGLC - London City

ULTIMO METAR :
  • 191820Z AUTO 23011KT 190V260 9999 NCD 20/10 Q1016

METARs OBSOLETI :
  • 191750Z AUTO 23011G23KT 190V250 9999 NCD 20/10 Q1016
  • 191720Z AUTO 23011KT 9999 NCD 20/10 Q1015
  • 191650Z AUTO 24012KT 9999 //////CB 20/09 Q1015
  • 191620Z AUTO 24013KT 9999 //////TCU 21/10 Q1015
  • 191550Z AUTO 22009KT 190V280 9999 //////TCU 20/12 Q1015

TAF TAF EGLC
Valido dal 19 a 18 ore il 19 a 21 ore UTC


191702Z 1918/1921 24010KT 9999 FEW030
ATIS : +44 20 7646 0224
Nessun NOTAM noto per questo aeroporto.



MetMap, La meteo Aeronautica in un colpo d'occhio ! - Copyright ORBIFLY Dicembre 2007 - Disclaimer

ORBIFLY MET'MAP TEAM :

Programmazione e sviluppo : Alexandra Zaïnal
Concezione e sviluppo : Baudouin d'Aumeries
Co-Programmazione e sviluppo : Marc-Olivier Méhu
Supporto tecnico e logistico : Manuel Goepfert
Aiuto per la traduzione : Arnaldo La Scala

Contatto : metmap@orbifly.com




FONTI E CREDITI :

   NOAA